METAR Data
IDs: Format: Raw Decoded Include TAF

Data at: 0137 UTC 20 Jan 2022

EKRS 200120Z AUTO VRB16G29KT 9999 NCD 02/M08 Q1005